createdAt,value
2023-10-29T00:01:18.206Z,98264.94
2023-10-29T00:03:44.972Z,98268.16
2023-10-29T00:06:11.695Z,98269.00
2023-10-29T00:08:38.280Z,98267.34
2023-10-29T00:11:04.841Z,98268.41
2023-10-29T00:13:31.324Z,98276.13
2023-10-29T00:15:57.953Z,98286.56
2023-10-29T00:18:24.553Z,98282.19
2023-10-29T00:20:51.295Z,98294.00
2023-10-29T00:23:17.881Z,98299.22
2023-10-29T00:25:44.435Z,98300.84
2023-10-29T00:28:11.021Z,98306.91
2023-10-29T00:30:37.618Z,98313.19
2023-10-29T00:33:04.757Z,98302.44
2023-10-29T00:35:31.342Z,98305.00
2023-10-29T00:37:57.977Z,98314.06
2023-10-29T00:40:24.508Z,98313.78
2023-10-29T00:42:50.984Z,98320.63
2023-10-29T00:45:17.550Z,98331.13
2023-10-29T00:47:44.210Z,98325.63
2023-10-29T00:50:10.775Z,98328.91
2023-10-29T00:52:37.392Z,98326.69
2023-10-29T00:55:03.895Z,98337.09
2023-10-29T00:57:30.961Z,98341.47
2023-10-29T00:59:57.574Z,98339.34
2023-10-29T01:02:24.196Z,98336.34
2023-10-29T01:04:50.720Z,98340.88
2023-10-29T01:07:17.303Z,98345.28
2023-10-29T01:09:43.774Z,98341.13
2023-10-29T01:12:10.409Z,98345.06
2023-10-29T01:14:36.999Z,98349.72
2023-10-29T01:17:03.600Z,98356.31
2023-10-29T01:19:30.047Z,98359.03
2023-10-29T01:21:56.595Z,98364.22
2023-10-29T01:24:23.108Z,98377.16
2023-10-29T01:26:49.640Z,98376.06
2023-10-29T01:29:16.283Z,98388.19
2023-10-29T01:31:42.776Z,98384.63
2023-10-29T01:34:09.306Z,98385.16
2023-10-29T01:36:35.903Z,98401.41
2023-10-29T01:39:02.470Z,98395.56
2023-10-29T01:41:28.944Z,98401.06
2023-10-29T01:43:55.492Z,98401.66
2023-10-29T01:46:22.007Z,98406.34
2023-10-29T01:48:48.519Z,98426.38
2023-10-29T01:51:15.124Z,98425.25
2023-10-29T01:53:41.643Z,98418.38
2023-10-29T01:56:08.146Z,98423.28
2023-10-29T01:58:34.736Z,98428.25
2023-10-29T02:01:01.316Z,98432.69
2023-10-29T02:03:28.036Z,98433.75
2023-10-29T02:05:54.720Z,98440.84
2023-10-29T02:08:21.360Z,98439.75
2023-10-29T02:10:47.834Z,98451.28
2023-10-29T02:13:14.486Z,98452.97
2023-10-29T02:15:41.047Z,98450.75
2023-10-29T02:18:07.927Z,98457.91
2023-10-29T02:20:34.760Z,98461.22
2023-10-29T02:23:01.311Z,98468.38
2023-10-29T02:25:27.830Z,98470.56
2023-10-29T02:27:54.407Z,98470.56
2023-10-29T02:30:20.882Z,98477.72
2023-10-29T02:32:47.421Z,98487.88
2023-10-29T02:35:14.030Z,98493.69
2023-10-29T02:37:40.480Z,98494.22
2023-10-29T02:40:07.064Z,98498.03
2023-10-29T02:42:33.640Z,98505.19
2023-10-29T02:45:00.360Z,98506.81
2023-10-29T02:47:27.091Z,98518.91
2023-10-29T02:49:53.737Z,98521.66
2023-10-29T02:52:20.262Z,98529.66
2023-10-29T02:54:46.932Z,98528.25
2023-10-29T02:57:13.648Z,98528.25
2023-10-29T02:59:40.215Z,98532.38
2023-10-29T03:02:06.728Z,98537.03
2023-10-29T03:04:33.311Z,98535.38
2023-10-29T03:06:59.781Z,98535.38
2023-10-29T03:09:26.344Z,98544.13
2023-10-29T03:11:52.939Z,98544.41
2023-10-29T03:14:19.467Z,98553.44
2023-10-29T03:16:45.980Z,98567.19
2023-10-29T03:19:12.679Z,98557.03
2023-10-29T03:21:39.153Z,98568.84
2023-10-29T03:24:05.634Z,98567.25
2023-10-29T03:26:32.257Z,98566.97
2023-10-29T03:28:58.838Z,98575.50
2023-10-29T03:31:25.352Z,98578.25
2023-10-29T03:33:51.984Z,98581.00
2023-10-29T03:36:18.495Z,98591.97
2023-10-29T03:38:45.079Z,98595.81
2023-10-29T03:41:11.702Z,98602.97
2023-10-29T03:43:38.203Z,98617.25
2023-10-29T03:46:04.747Z,98615.88
2023-10-29T03:48:31.375Z,98619.44
2023-10-29T03:50:58.012Z,98628.22
2023-10-29T03:53:24.539Z,98616.13
2023-10-29T03:55:51.099Z,98624.66
2023-10-29T03:58:17.622Z,98618.88
2023-10-29T04:00:44.116Z,98632.06
2023-10-29T04:03:10.957Z,98633.16
2023-10-29T04:05:37.659Z,98643.84
2023-10-29T04:08:04.206Z,98639.19
2023-10-29T04:10:30.780Z,98649.06
2023-10-29T04:12:57.299Z,98655.13
2023-10-29T04:15:24.151Z,98654.31
2023-10-29T04:17:50.786Z,98659.53
2023-10-29T04:20:17.296Z,98669.97
2023-10-29T04:22:43.773Z,98663.38
2023-10-29T04:25:10.389Z,98669.97
2023-10-29T04:27:36.991Z,98674.88
2023-10-29T04:30:03.596Z,98683.41
2023-10-29T04:32:32.560Z,98684.53
2023-10-29T04:34:59.135Z,98691.63
2023-10-29T04:37:25.582Z,98693.03
2023-10-29T04:39:52.156Z,98695.22
2023-10-29T04:42:18.649Z,98703.75
2023-10-29T04:44:45.249Z,98713.34
2023-10-29T04:47:11.862Z,98713.88
2023-10-29T04:49:38.333Z,98721.03
2023-10-29T04:52:04.820Z,98729.00
2023-10-29T04:54:31.430Z,98727.09
2023-10-29T04:56:57.994Z,98732.84
2023-10-29T04:59:24.567Z,98736.97
2023-10-29T05:01:51.207Z,98739.16
2023-10-29T05:04:17.767Z,98739.16
2023-10-29T05:06:44.281Z,98737.25
2023-10-29T05:09:10.882Z,98744.41
2023-10-29T05:11:37.481Z,98748.50
2023-10-29T05:14:04.024Z,98750.69
2023-10-29T05:16:30.590Z,98756.19
2023-10-29T05:18:57.105Z,98747.69
2023-10-29T05:21:23.559Z,98759.75
2023-10-29T05:23:50.142Z,98760.03
2023-10-29T05:26:16.691Z,98769.38
2023-10-29T05:28:43.213Z,98764.97
2023-10-29T05:31:09.882Z,98768.84
2023-10-29T05:33:36.467Z,98769.63
2023-10-29T05:36:03.041Z,98788.59
2023-10-29T05:38:29.632Z,98773.22
2023-10-29T05:40:56.136Z,98784.50
2023-10-29T05:43:22.649Z,98780.91
2023-10-29T05:45:49.194Z,98801.53
2023-10-29T05:48:15.758Z,98802.09
2023-10-29T05:50:42.395Z,98800.69
2023-10-29T05:53:08.981Z,98812.25
2023-10-29T05:55:35.463Z,98820.50
2023-10-29T05:58:01.934Z,98825.44
2023-10-29T06:00:28.626Z,98822.41
2023-10-29T06:02:55.243Z,98828.19
2023-10-29T06:05:21.803Z,98828.75
2023-10-29T06:07:48.370Z,98837.53
2023-10-29T06:10:15.069Z,98829.81
2023-10-29T06:12:41.880Z,98834.25
2023-10-29T06:15:08.555Z,98841.94
2023-10-29T06:17:35.274Z,98843.03
2023-10-29T06:20:01.908Z,98845.50
2023-10-29T06:22:28.624Z,98843.56
2023-10-29T06:24:55.136Z,98845.50
2023-10-29T06:27:21.635Z,98852.66
2023-10-29T06:29:48.302Z,98851.53
2023-10-29T06:32:14.824Z,98858.69
2023-10-29T06:34:41.279Z,98859.50
2023-10-29T06:37:07.886Z,98866.13
2023-10-29T06:39:34.401Z,98867.47
2023-10-29T06:42:00.960Z,98866.13
2023-10-29T06:44:27.589Z,98869.41
2023-10-29T06:46:54.114Z,98878.22
2023-10-29T06:49:20.592Z,98878.22
2023-10-29T06:51:47.184Z,98880.16
2023-10-29T06:54:13.643Z,98882.06
2023-10-29T06:56:40.150Z,98891.41
2023-10-29T06:59:06.703Z,98899.63
2023-10-29T07:01:33.173Z,98894.13
2023-10-29T07:03:59.790Z,98900.19
2023-10-29T07:06:26.460Z,98906.78
2023-10-29T07:08:53.030Z,98914.50
2023-10-29T07:11:19.579Z,98912.25
2023-10-29T07:13:46.629Z,98915.31
2023-10-29T07:16:13.143Z,98924.09
2023-10-29T07:18:39.809Z,98923.28
2023-10-29T07:21:06.541Z,98934.28
2023-10-29T07:23:33.181Z,98937.56
2023-10-29T07:25:59.769Z,98938.69
2023-10-29T07:28:26.317Z,98943.66
2023-10-29T07:30:52.851Z,98949.69
2023-10-29T07:33:19.658Z,98949.13
2023-10-29T07:35:46.397Z,98965.91
2023-10-29T07:38:12.986Z,98965.09
2023-10-29T07:40:39.442Z,98964.00
2023-10-29T07:43:06.061Z,98970.59
2023-10-29T07:45:32.663Z,98973.38
2023-10-29T07:47:59.225Z,98977.75
2023-10-29T07:50:26.094Z,98978.84
2023-10-29T07:52:52.713Z,98985.44
2023-10-29T07:55:19.346Z,98986.53
2023-10-29T07:57:45.980Z,98988.16
2023-10-29T08:00:12.592Z,98997.28
2023-10-29T08:02:39.675Z,98992.63
2023-10-29T08:05:06.348Z,98989.84
2023-10-29T08:07:32.892Z,99002.50
2023-10-29T08:09:59.361Z,98999.44
2023-10-29T08:12:25.956Z,99007.47
2023-10-29T08:14:52.430Z,99018.44
2023-10-29T08:17:18.950Z,99008.00
2023-10-29T08:19:45.594Z,99016.78
2023-10-29T08:22:12.069Z,99018.41
2023-10-29T08:24:38.863Z,99022.81
2023-10-29T08:27:05.511Z,99028.06
2023-10-29T08:29:31.998Z,99023.38
2023-10-29T08:31:58.567Z,99026.16
2023-10-29T08:34:25.174Z,99033.00
2023-10-29T08:36:51.695Z,99033.03
2023-10-29T08:39:18.212Z,99042.09
2023-10-29T08:41:44.941Z,99052.00
2023-10-29T08:44:11.975Z,99054.22
2023-10-29T08:46:38.562Z,99057.50
2023-10-29T08:49:05.158Z,99070.13
2023-10-29T08:51:31.779Z,99066.84
2023-10-29T08:53:58.381Z,99070.41
2023-10-29T08:56:25.067Z,99081.16
2023-10-29T08:58:51.930Z,99083.94
2023-10-29T09:01:18.445Z,99074.03
2023-10-29T09:03:45.145Z,99082.81
2023-10-29T09:06:11.873Z,99083.94
2023-10-29T09:08:38.427Z,99083.72
2023-10-29T09:11:05.015Z,99083.44
2023-10-29T09:13:31.691Z,99093.91
2023-10-29T09:15:58.220Z,99098.34
2023-10-29T09:18:24.990Z,99105.75
2023-10-29T09:20:51.562Z,99099.97
2023-10-29T09:23:18.099Z,99102.75
2023-10-29T09:25:44.672Z,99104.41
2023-10-29T09:28:11.241Z,99111.56
2023-10-29T09:30:37.701Z,99109.63
2023-10-29T09:33:04.414Z,99123.13
2023-10-29T09:35:31.052Z,99125.88
2023-10-29T09:37:57.584Z,99134.09
2023-10-29T09:40:25.569Z,99131.84
2023-10-29T09:42:52.057Z,99133.56
2023-10-29T09:45:18.593Z,99141.09
2023-10-29T09:47:45.307Z,99145.91
2023-10-29T09:50:11.888Z,99146.53
2023-10-29T09:52:38.402Z,99147.88
2023-10-29T09:55:05.097Z,99159.94
2023-10-29T09:57:31.772Z,99162.63
2023-10-29T09:59:58.376Z,99168.94
2023-10-29T10:02:25.062Z,99159.88
2023-10-29T10:04:51.692Z,99173.91
2023-10-29T10:07:18.211Z,99169.78
2023-10-29T10:09:44.779Z,99180.78
2023-10-29T10:12:12.277Z,99179.69
2023-10-29T10:14:40.354Z,99191.25
2023-10-29T10:17:06.994Z,99185.19
2023-10-29T10:19:33.493Z,99189.88
2023-10-29T10:21:59.958Z,99192.38
2023-10-29T10:24:26.570Z,99191.81
2023-10-29T10:26:53.096Z,99190.13
2023-10-29T10:29:19.565Z,99196.25
2023-10-29T10:31:46.188Z,99195.13
2023-10-29T10:34:12.683Z,99201.13
2023-10-29T10:36:39.174Z,99212.19
2023-10-29T10:39:05.813Z,99208.88
2023-10-29T10:41:32.368Z,99206.13
2023-10-29T10:43:58.847Z,99211.09
2023-10-29T10:46:25.404Z,99218.25
2023-10-29T10:48:51.999Z,99220.97
2023-10-29T10:51:18.563Z,99219.56
2023-10-29T10:53:45.164Z,99225.94
2023-10-29T10:56:11.678Z,99229.78
2023-10-29T10:58:38.159Z,99242.97
2023-10-29T11:01:07.002Z,99251.22
2023-10-29T11:03:34.482Z,99254.53
2023-10-29T11:06:01.628Z,99252.94
2023-10-29T11:08:28.385Z,99260.66
2023-10-29T11:10:54.900Z,99259.56
2023-10-29T11:13:21.550Z,99271.13
2023-10-29T11:15:48.249Z,99263.91
2023-10-29T11:18:14.918Z,99272.16
2023-10-29T11:20:41.465Z,99279.28
2023-10-29T11:23:08.082Z,99282.59
2023-10-29T11:25:34.711Z,99284.22
2023-10-29T11:28:01.235Z,99290.84
2023-10-29T11:30:28.113Z,99297.72
2023-10-29T11:32:54.771Z,99299.66
2023-10-29T11:35:21.283Z,99307.41
2023-10-29T11:37:48.126Z,99317.00
2023-10-29T11:40:14.632Z,99315.59
2023-10-29T11:42:41.084Z,99317.00
2023-10-29T11:45:07.685Z,99322.78
2023-10-29T11:47:34.236Z,99333.56
2023-10-29T11:50:00.734Z,99337.69
2023-10-29T11:52:27.276Z,99331.09
2023-10-29T11:54:53.784Z,99334.06
2023-10-29T11:57:20.276Z,99345.94
2023-10-29T11:59:46.908Z,99345.94
2023-10-29T12:02:13.384Z,99349.53
2023-10-29T12:04:39.939Z,99349.22
2023-10-29T12:07:06.559Z,99363.56
2023-10-29T12:09:33.023Z,99368.25
2023-10-29T12:11:59.558Z,99372.91
2023-10-29T12:14:26.160Z,99377.34
2023-10-29T12:16:52.883Z,99370.44
2023-10-29T12:19:19.528Z,99375.91
2023-10-29T12:21:46.108Z,99391.28
2023-10-29T12:24:12.585Z,99385.22
2023-10-29T12:26:39.143Z,99390.22
2023-10-29T12:29:05.743Z,99383.63
2023-10-29T12:31:32.233Z,99391.59
2023-10-29T12:33:58.737Z,99392.09
2023-10-29T12:36:25.345Z,99408.00
2023-10-29T12:38:51.874Z,99415.16
2023-10-29T12:41:18.407Z,99415.72
2023-10-29T12:43:44.945Z,99414.97
2023-10-29T12:46:12.073Z,99418.22
2023-10-29T12:48:38.584Z,99423.97
2023-10-29T12:51:05.375Z,99437.22
2023-10-29T12:53:31.946Z,99431.72
2023-10-29T12:55:58.674Z,99429.47
2023-10-29T12:58:25.861Z,99435.56
2023-10-29T13:00:54.458Z,99438.88
2023-10-29T13:03:23.551Z,99430.06
2023-10-29T13:05:50.387Z,99441.16
2023-10-29T13:08:16.900Z,99439.19
2023-10-29T13:10:43.417Z,99445.19
2023-10-29T13:13:10.170Z,99442.50
2023-10-29T13:15:36.658Z,99443.03
2023-10-29T13:18:03.243Z,99449.13
2023-10-29T13:20:29.934Z,99452.16
2023-10-29T13:22:56.873Z,99460.13
2023-10-29T13:25:23.722Z,99467.50
2023-10-29T13:27:51.272Z,99460.38
2023-10-29T13:30:17.874Z,99462.63
2023-10-29T13:32:44.439Z,99470.09
2023-10-29T13:35:11.120Z,99470.41
2023-10-29T13:37:37.647Z,99470.41
2023-10-29T13:40:04.260Z,99480.31
2023-10-29T13:42:30.926Z,99482.50
2023-10-29T13:44:57.781Z,99478.59
2023-10-29T13:47:24.378Z,99487.44
2023-10-29T13:49:51.047Z,99488.81
2023-10-29T13:52:17.746Z,99495.22
2023-10-29T13:54:44.310Z,99496.28
2023-10-29T13:57:10.970Z,99498.44
2023-10-29T13:59:37.408Z,99503.41
2023-10-29T14:02:04.129Z,99507.88
2023-10-29T14:04:30.769Z,99517.22
2023-10-29T14:06:57.304Z,99519.41
2023-10-29T14:09:23.887Z,99525.75
2023-10-29T14:11:50.519Z,99523.56
2023-10-29T14:14:17.188Z,99537.28
2023-10-29T14:16:43.814Z,99534.72
2023-10-29T14:19:10.479Z,99538.59
2023-10-29T14:21:36.973Z,99544.34
2023-10-29T14:24:03.721Z,99540.22
2023-10-29T14:26:30.352Z,99542.91
2023-10-29T14:28:56.801Z,99539.38
2023-10-29T14:31:23.287Z,99551.72
2023-10-29T14:33:49.906Z,99551.72
2023-10-29T14:36:16.400Z,99553.97
2023-10-29T14:38:42.915Z,99566.31
2023-10-29T14:41:09.462Z,99560.81
2023-10-29T14:43:35.993Z,99568.88
2023-10-29T14:46:02.455Z,99568.53
2023-10-29T14:48:29.132Z,99565.84
2023-10-29T14:50:55.695Z,99570.72
2023-10-29T14:53:22.203Z,99572.72
2023-10-29T14:55:48.784Z,99572.19
2023-10-29T14:58:15.332Z,99572.72
2023-10-29T15:00:41.887Z,99582.03
2023-10-29T15:03:08.650Z,99585.38
2023-10-29T15:05:35.414Z,99585.88
2023-10-29T15:08:01.935Z,99593.59
2023-10-29T15:10:28.549Z,99599.59
2023-10-29T15:12:55.037Z,99601.06
2023-10-29T15:15:29.241Z,99616.72
2023-10-29T15:17:57.622Z,99609.88
2023-10-29T15:20:26.538Z,99619.50
2023-10-29T15:22:53.166Z,99619.50
2023-10-29T15:25:19.791Z,99618.91
2023-10-29T15:27:46.316Z,99619.72
2023-10-29T15:30:13.780Z,99625.47
2023-10-29T15:32:41.394Z,99631.28
2023-10-29T15:35:08.020Z,99632.59
2023-10-29T15:37:34.494Z,99630.97
2023-10-29T15:40:01.046Z,99636.53
2023-10-29T15:42:27.551Z,99638.75
2023-10-29T15:44:54.111Z,99640.41
2023-10-29T15:47:20.687Z,99646.41
2023-10-29T15:49:47.353Z,99658.53
2023-10-29T15:52:13.942Z,99661.78
2023-10-29T15:54:40.505Z,99663.41
2023-10-29T15:57:07.030Z,99658.78
2023-10-29T15:59:33.517Z,99654.69
2023-10-29T16:02:00.125Z,99655.78
2023-10-29T16:04:26.715Z,99672.31
2023-10-29T16:06:53.324Z,99676.13
2023-10-29T16:09:19.984Z,99666.50
2023-10-29T16:11:46.526Z,99678.13
2023-10-29T16:14:13.040Z,99677.28
2023-10-29T16:16:39.610Z,99681.34
2023-10-29T16:19:06.076Z,99675.00
2023-10-29T16:21:32.610Z,99679.72
2023-10-29T16:23:59.175Z,99683.50
2023-10-29T16:26:25.663Z,99683.56
2023-10-29T16:28:52.214Z,99674.63
2023-10-29T16:31:19.360Z,99682.22
2023-10-29T16:33:46.439Z,99683.72
2023-10-29T16:36:13.140Z,99692.97
2023-10-29T16:38:39.769Z,99697.19
2023-10-29T16:41:07.124Z,99702.13
2023-10-29T16:43:34.085Z,99695.34
2023-10-29T16:46:00.878Z,99704.59
2023-10-29T16:48:27.463Z,99694.56
2023-10-29T16:51:02.900Z,99708.72
2023-10-29T16:53:33.610Z,99714.38
2023-10-29T16:56:00.126Z,99717.34
2023-10-29T16:58:26.647Z,99704.94
2023-10-29T17:00:53.882Z,99720.34
2023-10-29T17:03:20.905Z,99722.00
2023-10-29T17:05:47.500Z,99721.06
2023-10-29T17:08:14.084Z,99723.69
2023-10-29T17:10:40.558Z,99728.03
2023-10-29T17:13:07.076Z,99724.38
2023-10-29T17:15:33.702Z,99727.44
2023-10-29T17:18:00.302Z,99727.72
2023-10-29T17:20:26.957Z,99731.63
2023-10-29T17:22:53.535Z,99745.25
2023-10-29T17:25:20.067Z,99740.75
2023-10-29T17:27:46.621Z,99755.59
2023-10-29T17:30:13.288Z,99750.09
2023-10-29T17:32:39.901Z,99758.69
2023-10-29T17:35:06.478Z,99757.59
2023-10-29T17:37:33.733Z,99764.25
2023-10-29T17:40:00.573Z,99770.50
2023-10-29T17:42:27.165Z,99768.41
2023-10-29T17:44:53.795Z,99776.91
2023-10-29T17:47:20.352Z,99781.63
2023-10-29T17:49:46.946Z,99786.06
2023-10-29T17:52:13.525Z,99789.56
2023-10-29T17:54:40.114Z,99779.72
2023-10-29T17:57:06.687Z,99793.31
2023-10-29T17:59:33.375Z,99793.09
2023-10-29T18:01:59.868Z,99787.22
2023-10-29T18:04:26.442Z,99787.97
2023-10-29T18:06:53.106Z,99785.44
2023-10-29T18:09:19.675Z,99792.66
2023-10-29T18:11:46.254Z,99795.16
2023-10-29T18:14:13.036Z,99801.16
2023-10-29T18:16:39.594Z,99795.91
2023-10-29T18:19:06.120Z,99798.41
2023-10-29T18:21:33.267Z,99799.25
2023-10-29T18:24:00.238Z,99809.09
2023-10-29T18:26:27.448Z,99791.41
2023-10-29T18:28:54.365Z,99802.41
2023-10-29T18:31:20.940Z,99820.13
2023-10-29T18:33:48.619Z,99816.31
2023-10-29T18:36:15.289Z,99823.25
2023-10-29T18:38:41.877Z,99822.06
2023-10-29T18:41:08.604Z,99824.06
2023-10-29T18:43:35.209Z,99837.59
2023-10-29T18:46:01.739Z,99836.22
2023-10-29T18:48:28.419Z,99837.59
2023-10-29T18:50:55.148Z,99834.25
2023-10-29T18:53:21.763Z,99851.00
2023-10-29T18:55:48.299Z,99849.25
2023-10-29T18:58:14.863Z,99849.78
2023-10-29T19:00:41.437Z,99842.53
2023-10-29T19:03:08.325Z,99845.78
2023-10-29T19:05:34.992Z,99852.63
2023-10-29T19:08:01.505Z,99860.06
2023-10-29T19:10:28.053Z,99869.97
2023-10-29T19:12:55.196Z,99869.22
2023-10-29T19:15:22.273Z,99883.47
2023-10-29T19:17:49.024Z,99881.13
2023-10-29T19:20:15.661Z,99893.78
2023-10-29T19:22:42.135Z,99896.78
2023-10-29T19:25:08.772Z,99898.66
2023-10-29T19:27:35.560Z,99889.38
2023-10-29T19:30:02.259Z,99895.16
2023-10-29T19:32:31.116Z,99895.63
2023-10-29T19:34:57.679Z,99895.16
2023-10-29T19:37:24.217Z,99899.81
2023-10-29T19:39:50.845Z,99906.19
2023-10-29T19:42:17.637Z,99916.81
2023-10-29T19:44:44.206Z,99915.13
2023-10-29T19:47:10.741Z,99911.97
2023-10-29T19:49:37.527Z,99927.47
2023-10-29T19:52:04.184Z,99938.13
2023-10-29T19:54:30.752Z,99931.31
2023-10-29T19:56:57.474Z,99939.81
2023-10-29T19:59:24.064Z,99934.63
2023-10-29T20:01:50.684Z,99944.47
2023-10-29T20:04:17.446Z,99961.00
2023-10-29T20:06:44.042Z,99956.16
2023-10-29T20:09:10.623Z,99945.41
2023-10-29T20:11:37.234Z,99949.81
2023-10-29T20:14:03.765Z,99955.25
2023-10-29T20:16:30.365Z,99975.66
2023-10-29T20:18:56.966Z,99981.75
2023-10-29T20:21:24.281Z,99989.47
2023-10-29T20:23:50.899Z,99986.34
2023-10-29T20:26:17.486Z,99986.34
2023-10-29T20:28:44.100Z,99983.09
2023-10-29T20:31:10.689Z,99991.84
2023-10-29T20:33:37.392Z,99983.19
2023-10-29T20:36:04.070Z,99990.31
2023-10-29T20:38:30.706Z,99983.59
2023-10-29T20:40:57.328Z,100002.25
2023-10-29T20:43:23.824Z,99994.50
2023-10-29T20:45:50.314Z,99997.06
2023-10-29T20:48:16.946Z,100014.19
2023-10-29T20:50:43.474Z,100020.16
2023-10-29T20:53:09.960Z,100027.44
2023-10-29T20:55:36.542Z,100029.09
2023-10-29T20:58:03.061Z,100023.00
2023-10-29T21:00:32.325Z,100027.03
2023-10-29T21:02:59.305Z,100025.69
2023-10-29T21:05:25.862Z,100034.78
2023-10-29T21:07:52.385Z,100047.34
2023-10-29T21:10:18.963Z,100050.78
2023-10-29T21:12:45.848Z,100064.38
2023-10-29T21:15:12.437Z,100056.63
2023-10-29T21:17:39.102Z,100063.22
2023-10-29T21:20:05.684Z,100067.03
2023-10-29T21:22:32.133Z,100063.09
2023-10-29T21:24:58.722Z,100060.91
2023-10-29T21:27:26.544Z,100053.06
2023-10-29T21:29:55.219Z,100058.34
2023-10-29T21:32:21.858Z,100072.53
2023-10-29T21:34:48.381Z,100076.63
2023-10-29T21:37:14.974Z,100072.41
2023-10-29T21:39:41.573Z,100066.84
2023-10-29T21:42:08.071Z,100067.31
2023-10-29T21:44:34.744Z,100068.38
2023-10-29T21:47:01.290Z,100076.06
2023-10-29T21:49:27.800Z,100077.00
2023-10-29T21:51:54.332Z,100088.00
2023-10-29T21:54:20.956Z,100095.53
2023-10-29T21:56:47.594Z,100098.97
2023-10-29T21:59:14.118Z,100097.63
2023-10-29T22:01:40.678Z,100108.19
2023-10-29T22:04:07.305Z,100102.69
2023-10-29T22:06:33.932Z,100102.69
2023-10-29T22:09:00.660Z,100106.53
2023-10-29T22:11:27.228Z,100111.53
2023-10-29T22:13:53.730Z,100113.22
2023-10-29T22:16:20.351Z,100117.53
2023-10-29T22:18:46.960Z,100128.88
2023-10-29T22:21:13.587Z,100126.47
2023-10-29T22:23:40.341Z,100133.03
2023-10-29T22:26:06.844Z,100126.81
2023-10-29T22:28:33.344Z,100124.28
2023-10-29T22:31:00.118Z,100123.38
2023-10-29T22:33:26.822Z,100125.97
2023-10-29T22:35:53.332Z,100131.13
2023-10-29T22:38:19.881Z,100136.53
2023-10-29T22:40:46.389Z,100142.88
2023-10-29T22:43:12.896Z,100133.66
2023-10-29T22:45:39.578Z,100128.16
2023-10-29T22:48:06.134Z,100116.25
2023-10-29T22:50:32.680Z,100110.16
2023-10-29T22:52:59.349Z,100123.03
2023-10-29T22:55:25.851Z,100119.69
2023-10-29T22:57:52.341Z,100113.34
2023-10-29T23:00:19.035Z,100120.63
2023-10-29T23:02:45.695Z,100124.22
2023-10-29T23:05:12.197Z,100126.25
2023-10-29T23:07:38.774Z,100128.09
2023-10-29T23:10:05.283Z,100122.81
2023-10-29T23:12:31.773Z,100135.91
2023-10-29T23:14:58.350Z,100135.91
2023-10-29T23:17:24.827Z,100142.19
2023-10-29T23:19:51.294Z,100145.78
2023-10-29T23:22:17.880Z,100143.38
2023-10-29T23:24:44.384Z,100152.47
2023-10-29T23:27:10.925Z,100141.69
2023-10-29T23:29:37.553Z,100152.19
2023-10-29T23:32:04.205Z,100145.50
2023-10-29T23:34:30.736Z,100156.78
2023-10-29T23:36:57.316Z,100154.50
2023-10-29T23:39:23.888Z,100161.06
2023-10-29T23:41:50.441Z,100151.34
2023-10-29T23:44:17.042Z,100138.81
2023-10-29T23:46:43.559Z,100131.53
2023-10-29T23:49:10.180Z,100119.00
2023-10-29T23:51:36.852Z,100105.38
2023-10-29T23:54:03.527Z,100102.06
2023-10-29T23:56:30.186Z,100096.78
2023-10-29T23:58:56.764Z,100091.78
